Time;durP1;ratioP1;P1;durP2;ratioP2;P2;SDS_P1;SDS_P2;PMS_P1;PMS_P2;Temp;Humidity;BMP_temperature;BMP_pressure;BME280_temperature;BME280_humidity;BME280_pressure;Samples;Min_cycle;Max_cycle;Signal;HPM_P1;HPM_P2
2023/03/02 00:01:20;;;;;;;29.63;15.00;;;2.30;99.90;;;;;;6216734;23;20008;-90
2023/03/02 00:03:46;;;;;;;31.17;14.68;;;0.90;99.90;;;;;;6242414;23;20008;-91
2023/03/02 00:06:11;;;;;;;31.17;15.88;;;2.80;99.90;;;;;;6217050;23;20012;-91
2023/03/02 00:08:38;;;;;;;41.03;17.92;;;1.00;99.90;;;;;;6225278;23;20008;-91
2023/03/02 00:11:04;;;;;;;31.88;15.98;;;0.80;99.90;;;;;;6218221;23;20115;-89
2023/03/02 00:13:33;;;;;;;32.42;15.50;;;0.90;99.90;;;;;;6246489;23;20429;-92
2023/03/02 00:15:58;;;;;;;31.70;15.40;;;1.20;99.90;;;;;;6244018;23;20083;-91
2023/03/02 00:18:24;;;;;;;122.93;42.00;;;1.80;99.90;;;;;;6215800;23;20106;-90
2023/03/02 00:20:50;;;;;;;162.90;54.15;;;;;;;;;;6215714;23;20087;-90
2023/03/02 00:23:15;;;;;;;101.70;38.13;;;0.80;99.90;;;;;;6216249;23;20478;-91
2023/03/02 00:25:41;;;;;;;131.10;44.75;;;0.50;99.90;;;;;;6243059;23;20075;-92
2023/03/02 00:28:07;;;;;;;42.45;18.65;;;2.00;99.90;;;;;;6243284;23;20433;-91
2023/03/02 00:30:33;;;;;;;39.55;16.77;;;1.80;99.90;;;;;;6245600;23;20384;-91
2023/03/02 00:32:59;;;;;;;31.38;16.15;;;0.70;99.90;;;;;;6225233;23;20004;-90
2023/03/02 00:35:25;;;;;;;29.50;15.32;;;;;;;;;;6222593;23;20011;-90
2023/03/02 00:37:51;;;;;;;28.80;13.68;;;0.80;99.90;;;;;;6225604;23;20000;-91
2023/03/02 00:40:17;;;;;;;22.40;13.02;;;0.80;99.90;;;;;;6242796;23;20012;-92
2023/03/02 00:42:43;;;;;;;25.10;14.02;;;0.80;99.90;;;;;;6215821;23;20055;-90
2023/03/02 00:45:09;;;;;;;20.65;12.38;;;0.80;99.90;;;;;;6242383;23;19996;-90
2023/03/02 00:47:36;;;;;;;19.23;12.48;;;0.80;99.90;;;;;;6241997;23;20031;-88
2023/03/02 00:50:04;;;;;;;19.90;12.38;;;0.70;99.90;;;;;;6216404;23;20004;-91
2023/03/02 00:52:30;;;;;;;23.73;12.90;;;0.70;99.90;;;;;;6216636;23;20008;-92
2023/03/02 00:54:56;;;;;;;20.55;12.93;;;0.70;99.90;;;;;;6242454;23;20000;-91
2023/03/02 00:57:22;;;;;;;21.83;12.60;;;1.20;99.90;;;;;;6215606;23;20008;-91
2023/03/02 00:59:48;;;;;;;22.02;13.02;;;0.60;99.90;;;;;;6242022;23;20004;-90
2023/03/02 01:02:14;;;;;;;17.80;12.20;;;1.80;99.90;;;;;;6215408;23;20011;-91
2023/03/02 01:04:41;;;;;;;21.90;12.95;;;0.50;99.90;;;;;;6215828;23;20008;-91
2023/03/02 01:07:13;;;;;;;46.20;23.60;;;0.40;99.90;;;;;;6242787;23;19996;-90
2023/03/02 01:09:41;;;;;;;58.67;26.50;;;0.60;99.90;;;;;;6242380;23;20011;-90
2023/03/02 01:12:09;;;;;;;47.05;24.52;;;1.10;99.90;;;;;;6215371;23;20061;-90
2023/03/02 01:14:40;;;;;;;34.58;19.10;;;0.40;99.90;;;;;;6216487;23;20011;-90
2023/03/02 01:17:07;;;;;;;38.40;20.00;;;0.40;99.90;;;;;;6243044;23;20437;-86
2023/03/02 01:19:33;;;;;;;27.08;16.30;;;0.30;99.90;;;;;;6215657;23;20019;-93
2023/03/02 01:21:59;;;;;;;24.98;15.20;;;0.30;99.90;;;;;;6215414;23;20066;-91
2023/03/02 01:24:25;;;;;;;23.33;13.80;;;;;;;;;;6215325;23;20004;-92
2023/03/02 01:26:51;;;;;;;21.73;12.82;;;0.20;99.90;;;;;;6242210;23;20004;-91
2023/03/02 01:29:16;;;;;;;20.77;13.43;;;1.10;99.90;;;;;;6215349;23;20004;-91
2023/03/02 01:31:42;;;;;;;23.55;13.68;;;0.20;99.90;;;;;;6215701;23;20081;-91
2023/03/02 01:34:08;;;;;;;22.85;13.10;;;1.00;99.90;;;;;;6242114;23;20008;-91
2023/03/02 01:36:33;;;;;;;24.00;14.45;;;0.30;99.90;;;;;;6215861;23;20008;-91
2023/03/02 01:38:59;;;;;;;34.00;17.45;;;0.30;99.90;;;;;;6241889;23;20383;-91
2023/03/02 01:41:26;;;;;;;35.85;19.67;;;1.50;99.90;;;;;;6241764;23;20460;-90
2023/03/02 01:43:51;;;;;;;28.02;16.60;;;0.30;99.90;;;;;;6242297;23;20012;-91
2023/03/02 01:46:29;;;;;;;45.80;23.55;;;0.10;99.90;;;;;;6215346;23;20008;-91
2023/03/02 01:49:06;;;;;;;40.67;21.70;;;0.20;99.90;;;;;;6241322;23;20027;-92
2023/03/02 01:51:37;;;;;;;30.00;17.83;;;0.10;99.90;;;;;;6241465;23;19997;-91
2023/03/02 01:54:15;;;;;;;23.83;13.63;;;0.20;99.90;;;;;;6242181;23;20004;-89
2023/03/02 01:56:42;;;;;;;20.27;13.82;;;0.10;99.90;;;;;;6241833;23;20000;-91
2023/03/02 01:59:15;;;;;;;22.63;15.52;;;0.10;99.90;;;;;;6241813;23;20011;-88
2023/03/02 02:01:44;;;;;;;24.05;15.38;;;0.10;99.90;;;;;;6242001;23;20463;-90
2023/03/02 02:04:10;;;;;;;26.13;15.57;;;0.80;99.90;;;;;;6214610;23;20028;-91
2023/03/02 02:06:53;;;;;;;22.92;13.82;;;0.70;99.90;;;;;;6215259;23;20008;-92
2023/03/02 02:09:21;;;;;;;19.88;12.48;;;-0.10;99.90;;;;;;6214972;23;20092;-91
2023/03/02 02:11:47;;;;;;;19.15;12.70;;;-0.10;99.90;;;;;;6241713;23;20086;-90
2023/03/02 02:14:13;;;;;;;21.38;13.27;;;-0.10;99.90;;;;;;6215128;23;20012;-92
2023/03/02 02:16:40;;;;;;;22.25;14.30;;;-1.40;99.90;;;;;;6241846;23;20050;-90
2023/03/02 02:19:40;;;;;;;20.40;13.82;;;-0.30;99.90;;;;;;6242076;23;20004;-90
2023/03/02 02:22:09;;;;;;;19.27;12.05;;;-0.10;99.90;;;;;;6241743;23;20012;-92
2023/03/02 02:24:57;;;;;;;21.90;12.07;;;-0.10;99.90;;;;;;6215158;23;20099;-91
2023/03/02 02:27:28;;;;;;;19.25;12.50;;;-0.10;99.90;;;;;;6241310;23;20026;-91
2023/03/02 02:29:57;;;;;;;18.15;12.68;;;0.50;99.90;;;;;;6214632;23;20004;-91
2023/03/02 02:32:29;;;;;;;20.58;12.23;;;-0.20;99.90;;;;;;6214742;23;20000;-91
2023/03/02 02:35:26;;;;;;;22.00;12.82;;;-0.20;99.90;;;;;;6241022;23;20370;-90
2023/03/02 02:37:55;;;;;;;22.85;12.40;;;-0.20;99.90;;;;;;6241447;23;20337;-90
2023/03/02 02:40:39;;;;;;;19.13;12.25;;;-0.20;99.90;;;;;;6214601;23;20083;-91
2023/03/02 02:43:06;;;;;;;22.00;12.65;;;1.00;99.90;;;;;;6214768;23;20046;-91
2023/03/02 02:45:32;;;;;;;22.13;12.88;;;-0.20;99.90;;;;;;6214585;23;20001;-91
2023/03/02 02:47:58;;;;;;;18.17;11.90;;;-0.20;99.90;;;;;;6240962;23;20015;-91
2023/03/02 02:50:34;;;;;;;24.83;12.52;;;-0.10;99.90;;;;;;6214584;23;20008;-91
2023/03/02 02:53:16;;;;;;;31.77;15.32;;;1.40;99.90;;;;;;6241326;23;20005;-92
2023/03/02 02:55:42;;;;;;;25.10;13.63;;;-0.20;99.90;;;;;;6244294;23;20075;-89
2023/03/02 02:58:29;;;;;;;19.60;13.07;;;-0.30;99.90;;;;;;6217381;23;20039;-91
2023/03/02 03:00:55;;;;;;;19.45;13.07;;;-0.30;99.90;;;;;;6216932;23;20029;-90
2023/03/02 03:03:32;;;;;;;24.67;13.20;;;-0.30;99.90;;;;;;6243449;23;20015;-90
2023/03/02 03:06:01;;;;;;;23.07;12.73;;;-0.30;99.90;;;;;;6217038;23;20007;-90
2023/03/02 03:08:42;;;;;;;;;;;-0.40;99.90;;;;;;6217203;23;20011;-91
2023/03/02 03:11:10;;;;;;;23.83;12.77;;;-0.20;99.90;;;;;;6246105;23;19919;-91
2023/03/02 03:13:37;;;;;;;27.13;13.38;;;-0.30;99.90;;;;;;6226899;23;20007;-92
2023/03/02 03:16:04;;;;;;;22.90;13.20;;;-0.30;99.90;;;;;;6253352;23;20079;-90
2023/03/02 03:18:30;;;;;;;20.23;13.45;;;-0.20;99.90;;;;;;6248245;23;20440;-91
2023/03/02 03:20:56;;;;;;;25.77;14.27;;;-0.20;99.90;;;;;;6245892;23;20000;-92
2023/03/02 03:23:23;;;;;;;20.75;13.30;;;0.40;99.90;;;;;;6253566;23;20012;-91
2023/03/02 03:25:48;;;;;;;20.40;13.75;;;0.60;99.90;;;;;;6260173;23;20000;-89
2023/03/02 03:28:14;;;;;;;23.13;13.98;;;0.40;99.90;;;;;;6259337;23;20314;-90
2023/03/02 03:30:40;;;;;;;27.38;14.23;;;-0.40;99.90;;;;;;6247736;23;20016;-91
2023/03/02 03:33:09;;;;;;;22.58;13.25;;;-0.20;99.90;;;;;;6243101;23;20036;-92
2023/03/02 03:35:36;;;;;;;25.98;13.85;;;-0.20;99.90;;;;;;6216051;23;20322;-91
2023/03/02 03:38:03;;;;;;;23.65;13.85;;;-0.20;99.90;;;;;;6242042;23;20000;-91
2023/03/02 03:40:33;;;;;;;23.73;14.40;;;0.10;99.90;;;;;;6242832;23;20000;-88
2023/03/02 03:42:59;;;;;;;20.20;13.52;;;-0.20;99.90;;;;;;6216836;23;20016;-91
2023/03/02 03:45:24;;;;;;;28.05;13.77;;;-0.20;99.90;;;;;;6242790;23;20007;-90
2023/03/02 03:47:50;;;;;;;26.77;15.18;;;0.30;99.90;;;;;;6215777;23;20008;-90
2023/03/02 03:50:16;;;;;;;23.63;14.13;;;-0.20;99.90;;;;;;6242367;23;20023;-90
2023/03/02 03:52:41;;;;;;;20.08;13.60;;;-0.10;99.90;;;;;;6242980;23;20011;-91
2023/03/02 03:55:07;;;;;;;26.45;13.85;;;-0.10;99.90;;;;;;6242862;23;20008;-90
2023/03/02 03:57:33;;;;;;;24.48;14.90;;;-0.10;99.90;;;;;;6242829;23;20004;-89
2023/03/02 03:59:59;;;;;;;20.70;13.48;;;-0.10;99.90;;;;;;6215624;23;20448;-89
2023/03/02 04:02:24;;;;;;;25.92;14.05;;;-0.20;99.90;;;;;;6242468;23;20008;-91
2023/03/02 04:04:50;;;;;;;21.15;13.32;;;0.80;99.90;;;;;;6215085;23;20012;-90
2023/03/02 04:07:16;;;;;;;21.90;13.77;;;;;;;;;;6241366;23;20004;-90
2023/03/02 04:09:43;;;;;;;22.05;13.73;;;-0.30;99.90;;;;;;6243618;23;20000;-91
2023/03/02 04:12:09;;;;;;;23.73;14.35;;;-0.40;99.90;;;;;;6242806;23;20484;-90
2023/03/02 04:14:35;;;;;;;22.08;14.18;;;0.60;99.90;;;;;;6242763;23;20010;-90
2023/03/02 04:17:04;;;;;;;21.13;13.13;;;-0.40;99.90;;;;;;6242492;23;20068;-90
2023/03/02 04:19:30;;;;;;;25.70;15.07;;;-0.50;99.90;;;;;;6241891;23;20015;-90
2023/03/02 04:21:57;;;;;;;32.10;17.42;;;-0.60;99.90;;;;;;6242261;23;20066;-91
2023/03/02 04:24:23;;;;;;;36.40;18.00;;;-0.50;99.90;;;;;;6215595;23;20092;-90
2023/03/02 04:26:50;;;;;;;41.63;21.30;;;-0.60;99.90;;;;;;6243056;23;19996;-91
2023/03/02 04:29:17;;;;;;;38.25;20.73;;;-0.50;99.90;;;;;;6243203;23;20440;-90
2023/03/02 04:31:43;;;;;;;33.67;19.52;;;-0.60;99.90;;;;;;6216523;23;20382;-91
2023/03/02 04:34:09;;;;;;;27.48;16.20;;;-0.60;99.90;;;;;;6215613;23;20090;-91
2023/03/02 04:36:37;;;;;;;25.67;15.57;;;-0.60;99.90;;;;;;6241888;23;20007;-90
2023/03/02 04:39:03;;;;;;;;;;;-0.60;99.90;;;;;;6215914;23;20352;-92
2023/03/02 04:41:29;;;;;;;25.20;14.90;;;-0.50;99.90;;;;;;6242135;23;19904;-91
2023/03/02 04:43:55;;;;;;;28.85;16.73;;;0.00;99.90;;;;;;6242381;23;20016;-89
2023/03/02 04:46:23;;;;;;;61.63;27.52;;;-0.60;99.90;;;;;;6242320;23;20003;-90
2023/03/02 04:48:49;;;;;;;55.70;26.60;;;-0.70;99.90;;;;;;6242337;23;20011;-89
2023/03/02 04:51:24;;;;;;;38.40;20.60;;;-0.80;99.90;;;;;;6216331;23;20075;-89
2023/03/02 04:53:51;;;;;;;46.80;23.80;;;-0.60;99.90;;;;;;6215069;23;20039;-90
2023/03/02 04:56:18;;;;;;;50.13;24.70;;;-0.70;99.90;;;;;;6242781;23;20012;-90
2023/03/02 04:58:43;;;;;;;41.58;22.30;;;-0.70;99.90;;;;;;6216402;23;20406;-91
2023/03/02 05:01:10;;;;;;;58.22;26.48;;;-0.20;99.90;;;;;;6242208;23;20035;-90
2023/03/02 05:03:35;;;;;;;46.00;21.23;;;-1.00;99.90;;;;;;6241995;23;20100;-90
2023/03/02 05:06:04;;;;;;;39.13;20.20;;;;;;;;;;6215415;23;20039;-89
2023/03/02 05:08:30;;;;;;;38.33;19.55;;;-0.70;99.90;;;;;;6215206;23;20004;-90
2023/03/02 05:10:57;;;;;;;25.88;16.92;;;-0.80;99.90;;;;;;6241908;23;19996;-90
2023/03/02 05:13:24;;;;;;;24.35;16.23;;;-0.80;99.90;;;;;;6215501;23;20078;-89
2023/03/02 05:15:50;;;;;;;25.13;15.48;;;-0.80;99.90;;;;;;6242079;23;19996;-89
2023/03/02 05:18:17;;;;;;;25.13;14.95;;;-0.80;99.90;;;;;;6242606;23;20015;-91
2023/03/02 05:20:43;;;;;;;32.08;18.00;;;-0.90;99.90;;;;;;6242023;23;19996;-91
2023/03/02 05:23:10;;;;;;;85.82;34.28;;;-0.50;99.90;;;;;;6242023;23;20465;-90
2023/03/02 05:25:37;;;;;;;78.47;32.60;;;0.70;99.90;;;;;;6214878;23;20391;-91
2023/03/02 05:28:04;;;;;;;103.00;36.65;;;-0.90;99.90;;;;;;6214724;23;20036;-91
2023/03/02 05:30:31;;;;;;;41.03;21.08;;;-0.90;99.90;;;;;;6241875;23;20314;-90
2023/03/02 05:32:57;;;;;;;30.92;16.67;;;-0.90;99.90;;;;;;6241778;23;20000;-89
2023/03/02 05:35:23;;;;;;;31.25;16.45;;;-0.90;99.90;;;;;;6214666;23;20050;-90
2023/03/02 05:37:49;;;;;;;29.17;17.40;;;-0.90;99.90;;;;;;6214782;23;20356;-89
2023/03/02 05:40:19;;;;;;;25.75;15.63;;;-0.90;99.90;;;;;;6214773;23;20460;-89
2023/03/02 05:42:45;;;;;;;28.90;16.65;;;-0.90;99.90;;;;;;6214084;23;20019;-91
2023/03/02 05:45:20;;;;;;;75.28;30.88;;;-0.50;99.90;;;;;;6214792;23;20004;-84
2023/03/02 05:47:46;;;;;;;51.85;23.90;;;-0.90;99.90;;;;;;6241948;23;20341;-84
2023/03/02 05:50:12;;;;;;;62.70;28.15;;;-0.80;99.90;;;;;;6213961;23;20449;-86
2023/03/02 05:52:38;;;;;;;69.30;30.60;;;-0.80;99.90;;;;;;6240841;23;20076;-84
2023/03/02 05:55:04;;;;;;;53.97;26.30;;;-0.80;99.90;;;;;;6240967;23;20452;-84
2023/03/02 05:57:29;;;;;;;44.58;23.38;;;-0.80;99.90;;;;;;6214064;23;20005;-84
2023/03/02 05:59:55;;;;;;;48.90;23.38;;;-0.80;99.90;;;;;;6213913;23;20008;-84
2023/03/02 06:02:21;;;;;;;39.88;21.70;;;-0.80;99.90;;;;;;6215114;23;20011;-85
2023/03/02 06:04:47;;;;;;;65.93;28.08;;;-0.80;99.90;;;;;;6241631;23;20004;-84
2023/03/02 06:07:12;;;;;;;66.70;30.13;;;-0.80;99.90;;;;;;6240173;23;20004;-85
2023/03/02 06:09:38;;;;;;;70.40;30.25;;;-0.80;99.90;;;;;;6240751;23;20011;-85
2023/03/02 06:12:05;;;;;;;58.22;26.83;;;-0.80;99.90;;;;;;6240711;23;20330;-84
2023/03/02 06:14:31;;;;;;;43.17;21.05;;;-0.90;99.90;;;;;;6240405;23;19997;-85
2023/03/02 06:16:56;;;;;;;37.63;20.83;;;-0.90;99.90;;;;;;6241036;23;20000;-84
2023/03/02 06:19:22;;;;;;;93.25;35.80;;;-0.90;99.90;;;;;;6234704;23;20012;-84
2023/03/02 06:21:49;;;;;;;90.88;36.25;;;-0.90;99.90;;;;;;6213096;23;20487;-84
2023/03/02 06:24:15;;;;;;;56.42;25.10;;;-0.90;99.90;;;;;;6239512;23;20050;-84
2023/03/02 06:26:40;;;;;;;58.22;27.60;;;-0.90;99.90;;;;;;6212892;23;20008;-85
2023/03/02 06:29:06;;;;;;;34.13;19.23;;;-1.00;99.90;;;;;;6239106;23;20012;-85
2023/03/02 06:31:32;;;;;;;35.83;19.77;;;-1.00;99.90;;;;;;6239869;23;20027;-85
2023/03/02 06:33:58;;;;;;;32.70;18.27;;;-1.00;99.90;;;;;;6240690;23;20060;-85
2023/03/02 06:36:24;;;;;;;35.92;20.60;;;-1.00;99.90;;;;;;6240329;23;20008;-85
2023/03/02 06:38:50;;;;;;;30.33;18.15;;;-1.00;99.90;;;;;;6241816;23;20008;-86
2023/03/02 06:41:16;;;;;;;35.15;19.63;;;-1.00;99.90;;;;;;6240591;23;20337;-90
2023/03/02 06:43:42;;;;;;;38.97;21.23;;;-1.00;99.90;;;;;;6240550;23;20019;-85
2023/03/02 06:46:07;;;;;;;39.13;20.63;;;-1.00;99.90;;;;;;6213627;23;20004;-86
2023/03/02 06:48:33;;;;;;;44.78;23.77;;;-1.00;99.90;;;;;;6240213;23;20008;-84
2023/03/02 06:50:58;;;;;;;44.25;22.17;;;-1.00;99.90;;;;;;6240035;23;20000;-85
2023/03/02 06:53:24;;;;;;;40.33;21.77;;;-1.00;99.90;;;;;;6239633;23;20465;-84
2023/03/02 06:55:50;;;;;;;48.20;23.08;;;-1.10;99.90;;;;;;6241180;23;20000;-83
2023/03/02 06:58:16;;;;;;;45.78;23.35;;;-1.10;99.90;;;;;;6240296;23;20004;-84
2023/03/02 07:00:42;;;;;;;41.60;23.02;;;-1.10;99.90;;;;;;6240574;23;20004;-84
2023/03/02 07:03:07;;;;;;;42.83;23.02;;;-1.10;99.90;;;;;;6240509;23;20016;-84
2023/03/02 07:05:34;;;;;;;38.40;20.80;;;-1.10;99.90;;;;;;6213129;23;20004;-85
2023/03/02 07:08:00;;;;;;;33.53;18.58;;;-1.00;99.90;;;;;;6213421;23;20038;-84
2023/03/02 07:10:26;;;;;;;31.67;19.27;;;-1.00;99.90;;;;;;6240460;23;20003;-83
2023/03/02 07:12:52;;;;;;;41.33;22.33;;;-1.10;99.90;;;;;;6240923;23;20004;-83
2023/03/02 07:15:18;;;;;;;50.30;23.42;;;-1.10;99.90;;;;;;6240494;23;20094;-83
2023/03/02 07:17:45;;;;;;;46.15;24.45;;;-1.10;99.90;;;;;;6240406;23;19996;-83
2023/03/02 07:20:12;;;;;;;40.83;22.50;;;-1.10;99.90;;;;;;6240392;23;20012;-83
2023/03/02 07:22:39;;;;;;;36.42;20.25;;;-1.10;99.90;;;;;;6239728;23;20016;-84
2023/03/02 07:25:05;;;;;;;35.40;21.27;;;-1.10;99.90;;;;;;6240363;23;20071;-85
2023/03/02 07:27:31;;;;;;;34.85;20.63;;;-1.00;99.90;;;;;;6213257;23;20004;-85
2023/03/02 07:29:57;;;;;;;36.80;20.20;;;-0.90;99.90;;;;;;6240568;23;20000;-84
2023/03/02 07:32:22;;;;;;;36.67;20.80;;;-0.90;99.90;;;;;;6241286;23;20032;-84
2023/03/02 07:34:48;;;;;;;35.33;21.02;;;-0.80;99.90;;;;;;6240270;23;20027;-84
2023/03/02 07:37:14;;;;;;;31.90;20.90;;;-0.80;99.90;;;;;;6213030;23;20096;-85
2023/03/02 07:39:39;;;;;;;36.45;21.38;;;-0.80;99.90;;;;;;6240653;23;20377;-85
2023/03/02 07:42:07;;;;;;;36.17;21.77;;;-0.70;99.90;;;;;;6214734;23;20004;-84
2023/03/02 07:44:33;;;;;;;37.75;21.88;;;-0.60;99.90;;;;;;6214498;23;20008;-85
2023/03/02 07:46:59;;;;;;;37.83;23.05;;;0.30;99.90;;;;;;6242371;23;20023;-85
2023/03/02 07:49:25;;;;;;;42.47;24.33;;;-0.50;99.90;;;;;;6243340;23;20433;-84
2023/03/02 07:51:51;;;;;;;40.55;23.38;;;-0.40;99.90;;;;;;6214657;23;20057;-84
2023/03/02 07:54:16;;;;;;;47.65;22.80;;;-0.40;99.90;;;;;;6241383;23;20027;-85
2023/03/02 07:56:42;;;;;;;47.33;24.77;;;-0.30;99.90;;;;;;6241527;23;20337;-84
2023/03/02 07:59:08;;;;;;;44.50;23.92;;;-0.20;99.90;;;;;;6215467;23;20061;-85
2023/03/02 08:01:33;;;;;;;40.83;23.33;;;-0.20;99.90;;;;;;6215325;23;20046;-85
2023/03/02 08:03:59;;;;;;;38.03;23.58;;;-0.10;99.90;;;;;;6241957;23;20023;-85
2023/03/02 08:06:25;;;;;;;50.30;26.15;;;;;;;;;;6243071;23;20318;-85
2023/03/02 08:08:51;;;;;;;52.97;27.75;;;0.00;99.90;;;;;;6242026;23;20000;-84
2023/03/02 08:11:17;;;;;;;43.88;25.20;;;0.10;99.90;;;;;;6241955;23;20000;-86
2023/03/02 08:13:44;;;;;;;44.13;23.30;;;0.10;99.90;;;;;;6241420;23;20000;-85
2023/03/02 08:16:12;;;;;;;36.50;23.02;;;0.20;99.90;;;;;;6241877;23;20080;-87
2023/03/02 08:18:38;;;;;;;37.85;23.17;;;;;;;;;;6242077;23;20008;-86
2023/03/02 08:21:10;;;;;;;34.72;22.63;;;0.40;99.90;;;;;;6241803;23;20000;-87
2023/03/02 08:23:36;;;;;;;37.30;22.48;;;0.40;99.90;;;;;;6214342;23;20091;-87
2023/03/02 08:26:01;;;;;;;49.22;23.05;;;0.50;99.90;;;;;;6241978;23;20054;-87
2023/03/02 08:28:27;;;;;;;35.53;21.88;;;1.00;99.90;;;;;;6215707;23;20011;-88
2023/03/02 08:30:58;;;;;;;34.42;22.83;;;0.70;99.90;;;;;;6215093;23;20333;-87
2023/03/02 08:33:25;;;;;;;39.50;22.35;;;0.80;99.90;;;;;;6215019;23;20036;-89
2023/03/02 08:35:55;;;;;;;36.80;23.67;;;1.00;99.90;;;;;;6240328;23;20449;-90
2023/03/02 08:38:21;;;;;;;36.53;22.02;;;1.00;99.90;;;;;;6241082;23;20008;-86
2023/03/02 08:40:47;;;;;;;38.50;23.70;;;1.10;99.90;;;;;;6241842;23;20000;-85
2023/03/02 08:43:12;;;;;;;37.15;23.55;;;1.10;99.90;;;;;;6214372;23;20016;-87
2023/03/02 08:45:38;;;;;;;40.22;23.80;;;1.20;99.90;;;;;;6214915;23;20035;-86
2023/03/02 08:48:03;;;;;;;35.67;22.98;;;1.30;99.90;;;;;;6214834;23;20031;-86
2023/03/02 08:50:29;;;;;;;34.22;22.50;;;1.40;99.90;;;;;;6241929;23;20000;-86
2023/03/02 08:52:54;;;;;;;36.30;23.27;;;1.60;99.90;;;;;;6240794;23;19996;-86
2023/03/02 08:55:20;;;;;;;38.67;24.52;;;1.60;99.90;;;;;;6240838;23;20256;-86
2023/03/02 08:57:46;;;;;;;39.25;25.25;;;1.60;99.90;;;;;;6214877;23;20004;-88
2023/03/02 09:00:15;;;;;;;39.25;23.55;;;1.70;99.90;;;;;;6241198;23;20027;-86
2023/03/02 09:02:41;;;;;;;41.97;23.88;;;1.90;99.90;;;;;;6241118;23;20034;-87
2023/03/02 09:05:07;;;;;;;38.95;24.38;;;2.00;99.90;;;;;;6241708;23;19996;-86
2023/03/02 09:07:32;;;;;;;38.28;25.30;;;2.10;99.90;;;;;;6215058;23;20012;-87
2023/03/02 09:09:58;;;;;;;39.38;24.70;;;2.10;99.90;;;;;;6244287;23;20456;-86
2023/03/02 09:12:24;;;;;;;41.35;24.40;;;2.20;99.90;;;;;;6242288;23;20067;-87
2023/03/02 09:14:49;;;;;;;38.30;24.60;;;2.30;99.90;;;;;;6242372;23;20000;-89
2023/03/02 09:17:16;;;;;;;43.00;25.80;;;;;;;;;;6241418;23;20072;-89
2023/03/02 09:19:42;;;;;;;39.45;25.42;;;2.40;99.90;;;;;;6216111;23;20487;-89
2023/03/02 09:22:08;;;;;;;37.45;24.65;;;2.50;99.90;;;;;;6242328;23;20000;-87
2023/03/02 09:24:34;;;;;;;36.92;24.70;;;2.60;99.90;;;;;;6241166;23;20008;-87
2023/03/02 09:27:01;;;;;;;36.97;25.45;;;2.70;99.90;;;;;;6215916;23;20000;-88
2023/03/02 09:29:27;;;;;;;38.92;25.10;;;2.90;99.90;;;;;;6241410;23;20008;-87
2023/03/02 09:31:52;;;;;;;37.92;24.95;;;2.90;99.90;;;;;;6214500;23;20059;-88
2023/03/02 09:34:18;;;;;;;42.75;25.33;;;3.00;99.90;;;;;;6241333;23;20004;-87
2023/03/02 09:36:44;;;;;;;40.38;24.27;;;3.10;99.90;;;;;;6214589;23;20001;-87
2023/03/02 09:39:11;;;;;;;39.97;26.00;;;3.90;99.90;;;;;;6241120;23;20077;-88
2023/03/02 09:41:58;;;;;;;42.08;25.42;;;3.30;99.90;;;;;;6214632;23;20000;-88
2023/03/02 09:44:23;;;;;;;40.50;27.10;;;3.40;99.90;;;;;;6213916;23;20043;-86
2023/03/02 09:46:55;;;;;;;39.22;25.48;;;3.70;99.90;;;;;;6213803;23;20095;-85
2023/03/02 09:49:49;;;;;;;36.58;25.83;;;3.70;99.90;;;;;;6241350;23;20341;-85
2023/03/02 09:52:31;;;;;;;37.85;24.88;;;3.80;99.90;;;;;;6241108;23;20004;-87
2023/03/02 09:55:19;;;;;;;44.30;26.60;;;3.80;99.90;;;;;;6240323;23;20341;-85
2023/03/02 09:57:46;;;;;;;37.22;25.00;;;3.90;99.90;;;;;;6241149;23;20003;-86
2023/03/02 10:00:18;;;;;;;37.53;25.48;;;3.90;99.90;;;;;;6240961;23;20004;-88
2023/03/02 10:02:49;;;;;;;37.75;24.80;;;4.00;99.90;;;;;;6213555;23;20012;-88
2023/03/02 10:05:22;;;;;;;37.10;24.38;;;4.20;99.90;;;;;;6240749;23;19996;-86
2023/03/02 10:07:48;;;;;;;39.63;26.10;;;4.20;99.90;;;;;;6240993;23;20008;-85
2023/03/02 10:10:17;;;;;;;38.83;26.13;;;4.30;99.90;;;;;;6241031;23;20058;-84
2023/03/02 10:12:45;;;;;;;37.33;23.35;;;4.50;99.90;;;;;;6213853;23;20012;-85
2023/03/02 10:15:38;;;;;;;38.88;23.38;;;4.70;99.90;;;;;;6241006;23;20072;-87
2023/03/02 10:18:16;;;;;;;38.17;24.02;;;4.70;99.90;;;;;;6189530;23;20015;-84
2023/03/02 10:20:55;;;;;;;33.15;23.75;;;4.80;99.90;;;;;;6240914;23;20000;-87
2023/03/02 10:23:48;;;;;;;33.65;23.48;;;4.80;99.90;;;;;;6210628;23;20041;-88
2023/03/02 10:26:14;;;;;;;38.90;24.95;;;4.90;99.90;;;;;;6240795;23;20069;-86
2023/03/02 10:28:56;;;;;;;37.25;23.98;;;5.10;99.90;;;;;;6213706;23;20441;-88
2023/03/02 10:31:26;;;;;;;38.30;24.98;;;5.10;99.90;;;;;;6240732;23;20003;-88
2023/03/02 10:33:53;;;;;;;31.77;21.75;;;6.10;99.90;;;;;;6241044;23;20004;-88
2023/03/02 10:36:28;;;;;;;38.55;24.08;;;5.70;99.90;;;;;;6240812;23;20030;-86
2023/03/02 10:38:55;;;;;;;35.70;24.15;;;5.30;99.90;;;;;;6241156;23;20051;-88
2023/03/02 10:41:31;;;;;;;33.80;23.30;;;5.30;99.90;;;;;;6214418;23;20004;-89
2023/03/02 10:44:03;;;;;;;36.70;23.55;;;5.40;99.90;;;;;;6240683;23;20016;-86
2023/03/02 10:46:39;;;;;;;37.30;23.85;;;5.60;99.90;;;;;;6213932;23;20011;-88
2023/03/02 10:49:24;;;;;;;32.55;22.17;;;5.60;99.90;;;;;;6213889;23;20012;-88
2023/03/02 10:52:26;;;;;;;33.88;22.08;;;5.60;99.90;;;;;;6240707;23;20001;-87
2023/03/02 10:55:11;;;;;;;30.77;21.15;;;5.70;99.90;;;;;;6212918;23;20004;-87
2023/03/02 10:57:39;;;;;;;29.80;21.15;;;6.00;99.90;;;;;;6215045;23;20036;-89
2023/03/02 11:00:25;;;;;;;35.53;21.97;;;5.80;99.90;;;;;;6240535;23;20425;-88
2023/03/02 11:02:54;;;;;;;35.00;21.52;;;6.00;99.90;;;;;;6240536;23;20259;-87
2023/03/02 11:05:26;;;;;;;37.25;21.60;;;6.10;99.90;;;;;;6213819;23;20018;-88
2023/03/02 11:07:56;;;;;;;37.28;22.17;;;6.10;99.90;;;;;;6240642;23;20000;-88
2023/03/02 11:10:30;;;;;;;28.75;19.73;;;6.20;99.90;;;;;;6213917;23;20009;-89
2023/03/02 11:12:57;;;;;;;36.08;21.38;;;6.30;99.90;;;;;;6241265;23;20034;-88
2023/03/02 11:15:38;;;;;;;33.38;21.25;;;7.30;99.90;;;;;;6241630;23;20012;-86
2023/03/02 11:18:25;;;;;;;31.50;20.55;;;6.30;99.90;;;;;;6243189;23;20016;-89
2023/03/02 11:21:15;;;;;;;31.25;21.23;;;6.30;99.90;;;;;;6242588;23;20071;-87
2023/03/02 11:23:59;;;;;;;38.47;21.90;;;6.40;99.90;;;;;;6202352;23;20345;-87
2023/03/02 11:26:34;;;;;;;31.63;20.38;;;6.40;99.90;;;;;;6242712;23;20051;-87
2023/03/02 11:29:10;;;;;;;36.03;21.52;;;6.60;99.90;;;;;;6242403;23;20008;-88
2023/03/02 11:31:46;;;;;;;29.95;20.20;;;6.50;99.90;;;;;;6215705;23;20007;-87
2023/03/02 11:34:45;;;;;;;33.08;21.48;;;6.60;99.90;;;;;;6242626;23;20023;-86
2023/03/02 11:37:14;;;;;;;31.63;20.88;;;6.60;99.90;;;;;;6193107;23;20005;-87
2023/03/02 11:39:46;;;;;;;34.08;21.27;;;6.60;99.90;;;;;;6242844;23;20000;-86
2023/03/02 11:42:25;;;;;;;35.88;21.30;;;7.40;99.90;;;;;;6241830;23;20004;-90
2023/03/02 11:44:51;;;;;;;30.15;21.65;;;6.70;99.90;;;;;;6212829;23;20379;-87
2023/03/02 11:47:18;;;;;;;31.70;21.05;;;6.70;99.90;;;;;;6249520;23;20487;-87
2023/03/02 11:49:56;;;;;;;32.50;22.80;;;6.70;99.90;;;;;;6215858;23;20015;-86
2023/03/02 11:52:25;;;;;;;35.93;21.93;;;6.70;99.90;;;;;;6242665;23;20004;-86
2023/03/02 11:54:59;;;;;;;34.10;22.58;;;6.80;99.90;;;;;;6215543;23;20024;-90
2023/03/02 11:57:39;;;;;;;38.42;23.95;;;6.80;99.90;;;;;;6241882;23;20004;-89
2023/03/02 12:00:14;;;;;;;32.08;22.65;;;6.80;99.90;;;;;;6214993;23;20008;-88
2023/03/02 12:02:39;;;;;;;31.55;21.20;;;6.80;99.90;;;;;;6243410;23;20498;-89
2023/03/02 12:05:21;;;;;;;33.95;21.80;;;6.90;99.90;;;;;;6242423;23;20004;-88
2023/03/02 12:07:59;;;;;;;37.78;22.58;;;7.00;99.90;;;;;;6241790;23;20004;-86
2023/03/02 12:10:38;;;;;;;38.75;24.27;;;6.90;99.90;;;;;;6241053;23;20007;-87
2023/03/02 12:13:26;;;;;;;34.92;23.92;;;7.00;99.90;;;;;;6242562;23;20098;-87
2023/03/02 12:15:51;;;;;;;34.60;22.83;;;7.00;99.90;;;;;;6242235;23;20000;-86
2023/03/02 12:18:20;;;;;;;33.28;22.98;;;7.10;99.90;;;;;;6215133;23;20372;-87
2023/03/02 12:21:05;;;;;;;;;;;7.10;99.90;;;;;;6214883;23;20001;-84
2023/03/02 12:23:35;;;;;;;36.42;23.13;;;7.20;99.90;;;;;;6215006;23;19908;-85
2023/03/02 12:26:08;;;;;;;37.38;24.10;;;7.30;99.90;;;;;;6241865;23;20000;-86
2023/03/02 12:28:38;;;;;;;34.83;23.58;;;7.00;99.90;;;;;;6241940;23;20004;-85
2023/03/02 12:31:08;;;;;;;31.65;22.75;;;7.30;99.90;;;;;;6241359;23;20440;-85
2023/03/02 12:33:47;;;;;;;38.33;23.88;;;6.90;99.90;;;;;;6240828;23;20103;-85
2023/03/02 12:36:18;;;;;;;38.35;22.52;;;7.00;99.90;;;;;;6242660;23;20031;-85
2023/03/02 12:38:56;;;;;;;36.53;23.33;;;7.20;99.90;;;;;;6241940;23;20028;-85
2023/03/02 12:42:02;;;;;;;31.05;22.13;;;6.90;99.90;;;;;;6241960;23;20011;-85
2023/03/02 12:44:56;;;;;;;36.60;23.90;;;7.10;99.90;;;;;;6167571;23;20016;-85
2023/03/02 12:47:28;;;;;;;34.72;21.85;;;7.20;99.90;;;;;;6241773;23;20395;-86